createdAt,value
2018-12-08T00:00:39.755Z,100919.59
2018-12-08T00:01:40.103Z,100918.37
2018-12-08T00:02:41.489Z,100916.80
2018-12-08T00:03:40.860Z,100915.31
2018-12-08T00:04:41.126Z,100913.83
2018-12-08T00:05:41.407Z,100912.69
2018-12-08T00:06:42.005Z,100911.45
2018-12-08T00:07:42.061Z,100910.73
2018-12-08T00:08:42.126Z,100909.08
2018-12-08T00:09:43.020Z,100908.02
2018-12-08T00:10:43.972Z,100907.42
2018-12-08T00:11:44.503Z,100906.53
2018-12-08T00:12:45.034Z,100905.80
2018-12-08T00:13:45.305Z,100905.16
2018-12-08T00:14:46.045Z,100905.02
2018-12-08T00:15:46.034Z,100904.29
2018-12-08T00:16:46.905Z,100903.78
2018-12-08T00:17:48.483Z,100903.73
2018-12-08T00:18:47.789Z,100902.80
2018-12-08T00:19:56.783Z,100902.67
2018-12-08T00:20:49.161Z,100902.92
2018-12-08T00:21:50.594Z,100903.42
2018-12-08T00:22:50.945Z,100903.62
2018-12-08T00:23:51.317Z,100903.37
2018-12-08T00:24:51.805Z,100903.78
2018-12-08T00:25:52.291Z,100903.73
2018-12-08T00:26:52.700Z,100904.16
2018-12-08T00:27:53.158Z,100904.31
2018-12-08T00:28:52.775Z,100903.92
2018-12-08T00:29:53.388Z,100904.46
2018-12-08T00:30:54.796Z,100904.32
2018-12-08T00:31:54.105Z,100904.60
2018-12-08T00:32:55.809Z,100905.19
2018-12-08T00:33:54.929Z,100905.89
2018-12-08T00:34:55.684Z,100906.59
2018-12-08T00:35:56.133Z,100906.28
2018-12-08T00:36:57.679Z,100906.28
2018-12-08T00:37:57.062Z,100905.64
2018-12-08T00:38:57.051Z,100905.33
2018-12-08T00:39:57.809Z,100904.66
2018-12-08T00:41:05.499Z,100903.67
2018-12-08T00:42:02.025Z,100902.50
2018-12-08T00:42:59.570Z,100901.61
2018-12-08T00:44:00.180Z,100900.52
2018-12-08T00:45:01.640Z,100898.53
2018-12-08T00:46:01.162Z,100896.88
2018-12-08T00:47:01.031Z,100895.70
2018-12-08T00:48:02.348Z,100895.90
2018-12-08T00:49:03.020Z,100895.78
2018-12-08T00:50:02.561Z,100895.98
2018-12-08T00:51:03.106Z,100895.92
2018-12-08T00:52:03.447Z,100895.87
2018-12-08T00:53:04.907Z,100895.27
2018-12-08T00:54:04.559Z,100895.30
2018-12-08T00:55:05.168Z,100894.46
2018-12-08T00:56:06.510Z,100894.24
2018-12-08T00:57:05.808Z,100892.81
2018-12-08T00:58:07.224Z,100892.50
2018-12-08T00:59:07.854Z,100891.19
2018-12-08T01:00:08.250Z,100890.09
2018-12-08T01:01:09.277Z,100889.59
2018-12-08T01:02:08.768Z,100888.84
2018-12-08T01:03:10.177Z,100888.53
2018-12-08T01:04:09.761Z,100888.78
2018-12-08T01:05:11.209Z,100888.45
2018-12-08T01:06:11.648Z,100888.36
2018-12-08T01:06:19.923Z,100895.02
2018-12-08T01:07:21.341Z,100895.11
2018-12-08T01:08:21.832Z,100894.86
2018-12-08T01:09:22.159Z,100894.52
2018-12-08T01:10:22.493Z,100895.05
2018-12-08T01:11:22.987Z,100895.47
2018-12-08T01:12:23.799Z,100895.81
2018-12-08T01:13:23.172Z,100896.42
2018-12-08T01:14:24.663Z,100896.17
2018-12-08T01:15:25.404Z,100897.09
2018-12-08T01:16:25.188Z,100898.02
2018-12-08T01:17:25.919Z,100899.02
2018-12-08T01:18:26.621Z,100899.55
2018-12-08T01:19:30.055Z,100900.65
2018-12-08T01:20:28.532Z,100900.51
2018-12-08T01:21:29.322Z,100901.52
2018-12-08T01:22:29.726Z,100902.38
2018-12-08T01:23:30.158Z,100903.42
2018-12-08T01:24:30.515Z,100904.28
2018-12-08T01:25:30.937Z,100905.66
2018-12-08T01:26:31.562Z,100907.45
2018-12-08T01:27:31.314Z,100909.07
2018-12-08T01:28:31.642Z,100910.83
2018-12-08T01:29:33.155Z,100909.77
2018-12-08T01:30:33.122Z,100910.12
2018-12-08T01:31:34.440Z,100910.80
2018-12-08T01:32:34.849Z,100911.75
2018-12-08T01:33:34.283Z,100912.36
2018-12-08T01:34:35.845Z,100914.08
2018-12-08T01:35:35.546Z,100914.94
2018-12-08T01:36:36.936Z,100916.53
2018-12-08T01:37:37.461Z,100918.33
2018-12-08T01:38:36.968Z,100919.19
2018-12-08T01:39:38.321Z,100920.73
2018-12-08T01:40:39.110Z,100922.59
2018-12-08T01:41:39.614Z,100923.91
2018-12-08T01:42:39.393Z,100926.45
2018-12-08T01:43:40.710Z,100928.08
2018-12-08T01:44:41.096Z,100929.03
2018-12-08T01:45:40.332Z,100930.81
2018-12-08T01:46:41.780Z,100932.05
2018-12-08T01:47:42.302Z,100933.16
2018-12-08T01:48:41.833Z,100934.70
2018-12-08T01:49:42.476Z,100936.40
2018-12-08T01:50:43.138Z,100937.72
2018-12-08T01:51:44.718Z,100939.25
2018-12-08T01:52:45.361Z,100940.78
2018-12-08T01:53:45.909Z,100941.98
2018-12-08T01:54:46.299Z,100943.27
2018-12-08T01:55:46.653Z,100943.97
2018-12-08T01:56:47.294Z,100944.92
2018-12-08T01:57:47.676Z,100946.03
2018-12-08T01:58:48.038Z,100947.55
2018-12-08T01:59:48.382Z,100948.66
2018-12-08T02:00:48.694Z,100949.70
2018-12-08T02:01:49.092Z,100951.31
2018-12-08T02:01:57.164Z,100975.62
2018-12-08T02:02:58.866Z,100975.03
2018-12-08T02:03:58.431Z,100975.36
2018-12-08T02:04:59.975Z,100975.64
2018-12-08T02:06:00.308Z,100975.81
2018-12-08T02:07:00.657Z,100975.81
2018-12-08T02:08:00.959Z,100975.36
2018-12-08T02:09:01.447Z,100974.86
2018-12-08T02:10:01.720Z,100974.45
2018-12-08T02:11:02.057Z,100974.36
2018-12-08T02:12:02.979Z,100974.02
2018-12-08T02:13:03.514Z,100974.16
2018-12-08T02:14:04.916Z,100974.50
2018-12-08T02:15:04.230Z,100974.00
2018-12-08T02:16:04.836Z,100973.89
2018-12-08T02:17:05.270Z,100974.14
2018-12-08T02:18:05.845Z,100973.30
2018-12-08T02:19:05.581Z,100972.97
2018-12-08T02:20:06.148Z,100972.97
2018-12-08T02:21:07.928Z,100972.63
2018-12-08T02:22:08.042Z,100973.14
2018-12-08T02:23:07.683Z,100972.94
2018-12-08T02:24:09.329Z,100973.42
2018-12-08T02:25:08.849Z,100973.50
2018-12-08T02:26:09.390Z,100974.23
2018-12-08T02:27:10.801Z,100974.66
2018-12-08T02:28:11.265Z,100975.05
2018-12-08T02:29:11.642Z,100975.19
2018-12-08T02:30:12.066Z,100974.94
2018-12-08T02:31:11.775Z,100975.33
2018-12-08T02:32:13.136Z,100974.24
2018-12-08T02:33:12.997Z,100974.66
2018-12-08T02:34:13.229Z,100974.83
2018-12-08T02:35:14.507Z,100975.81
2018-12-08T02:36:14.923Z,100976.40
2018-12-08T02:37:15.588Z,100977.16
2018-12-08T02:38:15.106Z,100977.99
2018-12-08T02:39:15.786Z,100978.83
2018-12-08T02:40:17.319Z,100979.08
2018-12-08T02:41:16.829Z,100979.75
2018-12-08T02:42:18.506Z,100978.52
2018-12-08T02:43:18.889Z,100978.44
2018-12-08T02:44:19.354Z,100978.86
2018-12-08T02:45:19.717Z,100978.55
2018-12-08T02:46:20.089Z,100978.88
2018-12-08T02:47:20.621Z,100979.25
2018-12-08T02:48:21.139Z,100979.02
2018-12-08T02:49:20.349Z,100978.84
2018-12-08T02:50:21.763Z,100978.96
2018-12-08T02:51:22.187Z,100979.41
2018-12-08T02:52:22.564Z,100980.10
2018-12-08T02:53:23.013Z,100981.05
2018-12-08T02:54:23.319Z,100982.13
2018-12-08T02:55:23.599Z,100982.50
2018-12-08T02:55:31.981Z,100992.35
2018-12-08T02:56:33.576Z,100991.59
2018-12-08T02:57:33.856Z,100991.43
2018-12-08T02:58:34.229Z,100992.02
2018-12-08T02:59:33.568Z,100992.69
2018-12-08T03:00:35.253Z,100992.52
2018-12-08T03:01:35.618Z,100992.34
2018-12-08T03:02:36.364Z,100990.67
2018-12-08T03:03:36.824Z,100989.95
2018-12-08T03:04:37.059Z,100989.61
2018-12-08T03:05:37.443Z,100988.85
2018-12-08T03:06:38.336Z,100987.77
2018-12-08T03:07:38.846Z,100986.67
2018-12-08T03:08:39.293Z,100985.78
2018-12-08T03:09:39.655Z,100985.27
2018-12-08T03:10:39.904Z,100984.60
2018-12-08T03:11:40.363Z,100983.77
2018-12-08T03:12:41.174Z,100982.48
2018-12-08T03:13:41.507Z,100981.22
2018-12-08T03:14:41.783Z,100980.55
2018-12-08T03:15:42.041Z,100979.97
2018-12-08T03:16:42.605Z,100978.45
2018-12-08T03:17:43.057Z,100977.70
2018-12-08T03:18:43.358Z,100976.53
2018-12-08T03:19:43.746Z,100976.02
2018-12-08T03:20:44.078Z,100974.84
2018-12-08T03:21:44.405Z,100974.18
2018-12-08T03:22:44.814Z,100974.01
2018-12-08T03:23:45.543Z,100974.01
2018-12-08T03:24:45.933Z,100974.18
2018-12-08T03:25:46.215Z,100973.00
2018-12-08T03:26:46.901Z,100972.72
2018-12-08T03:27:47.196Z,100972.56
2018-12-08T03:28:47.432Z,100972.78
2018-12-08T03:29:47.906Z,100972.62
2018-12-08T03:30:48.869Z,100972.75
2018-12-08T03:31:49.805Z,100972.50
2018-12-08T03:32:50.080Z,100971.92
2018-12-08T03:33:50.327Z,100972.34
2018-12-08T03:34:50.812Z,100972.14
2018-12-08T03:35:51.221Z,100971.31
2018-12-08T03:36:51.591Z,100971.06
2018-12-08T03:37:51.968Z,100970.05
2018-12-08T03:38:52.300Z,100969.69
2018-12-08T03:39:52.576Z,100969.69
2018-12-08T03:40:00.603Z,100972.59
2018-12-08T03:41:00.927Z,100972.17
2018-12-08T03:42:02.314Z,100972.01
2018-12-08T03:43:02.604Z,100971.84
2018-12-08T03:44:03.051Z,100971.42
2018-12-08T03:45:03.449Z,100970.75
2018-12-08T03:46:03.826Z,100969.83
2018-12-08T03:47:04.181Z,100969.16
2018-12-08T03:48:04.450Z,100969.23
2018-12-08T03:49:04.732Z,100968.34
2018-12-08T03:50:05.148Z,100967.28
2018-12-08T03:51:05.513Z,100966.52
2018-12-08T03:52:05.872Z,100966.30
2018-12-08T03:53:05.159Z,100966.16
2018-12-08T03:54:06.458Z,100965.28
2018-12-08T03:55:06.762Z,100965.28
2018-12-08T03:56:07.236Z,100963.95
2018-12-08T03:57:07.556Z,100964.41
2018-12-08T03:58:08.095Z,100964.60
2018-12-08T03:59:08.374Z,100964.34
2018-12-08T04:00:08.659Z,100963.70
2018-12-08T04:01:09.029Z,100963.11
2018-12-08T04:02:09.394Z,100961.97
2018-12-08T04:03:09.810Z,100961.29
2018-12-08T04:04:10.533Z,100960.70
2018-12-08T04:05:10.796Z,100961.16
2018-12-08T04:06:11.313Z,100959.39
2018-12-08T04:07:11.627Z,100957.54
2018-12-08T04:08:11.982Z,100956.88
2018-12-08T04:09:12.441Z,100956.34
2018-12-08T04:10:12.702Z,100956.34
2018-12-08T04:11:13.319Z,100956.77
2018-12-08T04:12:16.766Z,100956.27
2018-12-08T04:13:14.042Z,100955.90
2018-12-08T04:14:14.469Z,100956.13
2018-12-08T04:15:14.742Z,100955.45
2018-12-08T04:16:15.049Z,100955.02
2018-12-08T04:17:14.526Z,100954.48
2018-12-08T04:18:15.854Z,100953.39
2018-12-08T04:19:16.193Z,100952.97
2018-12-08T04:20:16.634Z,100952.27
2018-12-08T04:21:16.215Z,100951.86
2018-12-08T04:22:17.582Z,100950.77
2018-12-08T04:23:17.854Z,100949.42
2018-12-08T04:24:18.142Z,100948.00
2018-12-08T04:25:18.427Z,100947.39
2018-12-08T04:26:18.708Z,100945.98
2018-12-08T04:27:18.990Z,100944.14
2018-12-08T04:28:19.810Z,100942.80
2018-12-08T04:28:28.454Z,100920.52
2018-12-08T04:29:29.712Z,100919.79
2018-12-08T04:30:30.238Z,100919.70
2018-12-08T04:31:30.673Z,100919.78
2018-12-08T04:32:31.086Z,100920.20
2018-12-08T04:33:31.725Z,100920.31
2018-12-08T04:34:32.245Z,100920.48
2018-12-08T04:35:32.517Z,100920.88
2018-12-08T04:36:32.830Z,100921.13
2018-12-08T04:37:33.486Z,100921.55
2018-12-08T04:38:34.019Z,100922.14
2018-12-08T04:39:34.394Z,100921.97
2018-12-08T04:40:34.838Z,100921.97
2018-12-08T04:41:35.120Z,100922.95
2018-12-08T04:42:35.505Z,100923.54
2018-12-08T04:43:36.363Z,100924.05
2018-12-08T04:44:36.676Z,100924.59
2018-12-08T04:45:37.002Z,100924.60
2018-12-08T04:46:37.516Z,100924.86
2018-12-08T04:47:38.143Z,100925.08
2018-12-08T04:48:38.438Z,100924.83
2018-12-08T04:49:39.040Z,100924.66
2018-12-08T04:50:39.460Z,100925.25
2018-12-08T04:51:39.803Z,100924.50
2018-12-08T04:52:42.460Z,100924.72
2018-12-08T04:53:39.938Z,100923.38
2018-12-08T04:54:41.657Z,100923.62
2018-12-08T04:55:42.160Z,100923.04
2018-12-08T04:56:42.710Z,100922.45
2018-12-08T04:57:42.999Z,100921.53
2018-12-08T04:58:43.593Z,100921.36
2018-12-08T04:59:43.853Z,100921.70
2018-12-08T05:00:44.269Z,100921.19
2018-12-08T05:01:44.864Z,100920.86
2018-12-08T05:02:45.408Z,100921.70
2018-12-08T05:03:45.699Z,100920.52
2018-12-08T05:04:46.216Z,100920.13
2018-12-08T05:05:46.473Z,100919.69
2018-12-08T05:06:46.824Z,100919.85
2018-12-08T05:07:47.565Z,100919.47
2018-12-08T05:08:47.888Z,100920.02
2018-12-08T05:09:48.173Z,100919.85
2018-12-08T05:10:48.934Z,100919.94
2018-12-08T05:11:49.199Z,100920.27
2018-12-08T05:12:49.512Z,100920.02
2018-12-08T05:13:50.296Z,100919.69
2018-12-08T05:13:58.575Z,100912.44
2018-12-08T05:14:59.760Z,100911.85
2018-12-08T05:16:00.307Z,100911.44
2018-12-08T05:17:00.629Z,100909.92
2018-12-08T05:18:00.920Z,100910.51
2018-12-08T05:19:00.373Z,100909.34
2018-12-08T05:20:01.627Z,100908.92
2018-12-08T05:21:02.102Z,100908.41
2018-12-08T05:22:02.484Z,100908.08
2018-12-08T05:23:02.902Z,100907.07
2018-12-08T05:24:03.049Z,100906.57
2018-12-08T05:25:03.360Z,100906.66
2018-12-08T05:26:03.675Z,100905.73
2018-12-08T05:27:04.154Z,100904.55
2018-12-08T05:28:04.893Z,100902.70
2018-12-08T05:29:05.200Z,100901.70
2018-12-08T05:30:05.484Z,100899.24
2018-12-08T05:31:04.779Z,100898.99
2018-12-08T05:32:06.030Z,100898.58
2018-12-08T05:33:06.381Z,100896.81
2018-12-08T05:34:06.912Z,100895.19
2018-12-08T05:35:07.146Z,100894.44
2018-12-08T05:36:07.449Z,100894.19
2018-12-08T05:37:07.718Z,100893.51
2018-12-08T05:38:08.064Z,100892.79
2018-12-08T05:39:08.436Z,100892.61
2018-12-08T05:40:08.736Z,100892.14
2018-12-08T05:41:09.017Z,100891.13
2018-12-08T05:42:09.278Z,100890.83
2018-12-08T05:43:09.632Z,100890.09
2018-12-08T05:44:09.960Z,100889.34
2018-12-08T05:45:10.393Z,100888.36
2018-12-08T05:46:11.223Z,100887.69
2018-12-08T05:47:11.731Z,100887.05
2018-12-08T05:48:12.065Z,100886.65
2018-12-08T05:49:12.364Z,100886.59
2018-12-08T05:50:12.816Z,100885.58
2018-12-08T05:51:13.582Z,100885.78
2018-12-08T05:52:14.113Z,100885.10
2018-12-08T05:53:14.552Z,100884.69
2018-12-08T05:54:14.857Z,100884.30
2018-12-08T05:55:15.127Z,100884.04
2018-12-08T05:56:15.380Z,100882.86
2018-12-08T05:57:15.677Z,100881.47
2018-12-08T05:58:15.992Z,100881.30
2018-12-08T05:59:16.463Z,100880.55
2018-12-08T06:00:15.935Z,100879.53
2018-12-08T06:00:24.411Z,100879.30
2018-12-08T06:01:25.904Z,100879.07
2018-12-08T06:02:25.282Z,100878.73
2018-12-08T06:03:26.561Z,100877.39
2018-12-08T06:04:26.827Z,100876.27
2018-12-08T06:05:27.210Z,100875.10
2018-12-08T06:06:27.737Z,100874.77
2018-12-08T06:07:27.144Z,100874.94
2018-12-08T06:08:28.444Z,100875.44
2018-12-08T06:09:28.842Z,100875.72
2018-12-08T06:10:29.073Z,100875.22
2018-12-08T06:11:29.366Z,100874.55
2018-12-08T06:12:29.845Z,100874.94
2018-12-08T06:13:30.332Z,100875.05
2018-12-08T06:14:30.561Z,100875.77
2018-12-08T06:15:30.844Z,100876.70
2018-12-08T06:16:31.161Z,100877.12
2018-12-08T06:17:31.619Z,100876.87
2018-12-08T06:18:32.013Z,100876.50
2018-12-08T06:19:32.318Z,100876.84
2018-12-08T06:20:32.646Z,100877.31
2018-12-08T06:21:32.977Z,100876.11
2018-12-08T06:22:33.250Z,100876.62
2018-12-08T06:23:33.608Z,100876.09
2018-12-08T06:24:33.941Z,100876.34
2018-12-08T06:25:34.531Z,100875.81
2018-12-08T06:26:35.188Z,100875.87
2018-12-08T06:27:35.579Z,100874.53
2018-12-08T06:28:35.831Z,100873.83
2018-12-08T06:29:36.083Z,100873.16
2018-12-08T06:30:36.351Z,100872.80
2018-12-08T06:31:36.727Z,100872.69
2018-12-08T06:32:37.199Z,100872.52
2018-12-08T06:33:37.458Z,100871.56
2018-12-08T06:34:37.881Z,100870.89
2018-12-08T06:35:38.155Z,100870.03
2018-12-08T06:36:38.302Z,100869.53
2018-12-08T06:37:38.553Z,100867.82
2018-12-08T06:38:39.059Z,100865.81
2018-12-08T06:39:39.316Z,100865.06
2018-12-08T06:40:39.761Z,100863.59
2018-12-08T06:41:40.010Z,100862.52
2018-12-08T06:42:40.428Z,100861.76
2018-12-08T06:43:40.917Z,100861.30
2018-12-08T06:44:41.182Z,100860.80
2018-12-08T06:45:41.496Z,100860.13
2018-12-08T06:46:41.826Z,100860.39
2018-12-08T06:46:50.139Z,100857.34
2018-12-08T06:47:51.374Z,100851.36
2018-12-08T06:48:51.696Z,100851.36
2018-12-08T06:49:52.007Z,100852.03
2018-12-08T06:50:52.359Z,100852.36
2018-12-08T06:51:52.851Z,100852.36
2018-12-08T06:52:53.094Z,100852.78
2018-12-08T06:53:53.468Z,100852.70
2018-12-08T06:54:53.755Z,100852.81
2018-12-08T06:55:54.299Z,100852.64
2018-12-08T06:56:54.594Z,100852.89
2018-12-08T06:57:54.964Z,100852.75
2018-12-08T06:58:55.278Z,100852.84
2018-12-08T06:59:55.653Z,100852.36
2018-12-08T07:00:55.978Z,100851.52
2018-12-08T07:01:56.322Z,100849.95
2018-12-08T07:02:56.693Z,100849.39
2018-12-08T07:03:57.023Z,100848.50
2018-12-08T07:04:57.319Z,100849.67
2018-12-08T07:05:57.696Z,100849.70
2018-12-08T07:06:58.063Z,100848.80
2018-12-08T07:07:58.325Z,100849.14
2018-12-08T07:08:58.759Z,100848.83
2018-12-08T07:09:59.141Z,100847.91
2018-12-08T07:10:59.433Z,100847.94
2018-12-08T07:11:59.855Z,100847.80
2018-12-08T07:13:00.124Z,100847.80
2018-12-08T07:14:00.463Z,100847.48
2018-12-08T07:15:00.981Z,100847.41
2018-12-08T07:16:01.556Z,100847.81
2018-12-08T07:17:01.918Z,100847.98
2018-12-08T07:18:02.265Z,100848.07
2018-12-08T07:19:02.568Z,100849.58
2018-12-08T07:20:02.883Z,100849.41
2018-12-08T07:21:03.178Z,100851.09
2018-12-08T07:22:03.501Z,100850.92
2018-12-08T07:23:03.867Z,100852.19
2018-12-08T07:24:04.224Z,100852.69
2018-12-08T07:25:04.595Z,100853.02
2018-12-08T07:26:04.917Z,100853.58
2018-12-08T07:27:05.617Z,100853.41
2018-12-08T07:28:06.041Z,100855.59
2018-12-08T07:28:14.296Z,100867.95
2018-12-08T07:29:15.550Z,100866.36
2018-12-08T07:30:15.882Z,100866.61
2018-12-08T07:31:16.239Z,100866.22
2018-12-08T07:32:16.499Z,100867.30
2018-12-08T07:33:16.884Z,100867.17
2018-12-08T07:34:17.298Z,100867.61
2018-12-08T07:35:17.642Z,100868.62
2018-12-08T07:36:17.922Z,100869.48
2018-12-08T07:37:18.210Z,100869.73
2018-12-08T07:38:18.562Z,100870.52
2018-12-08T07:39:18.943Z,100871.21
2018-12-08T07:40:19.193Z,100872.02
2018-12-08T07:41:19.624Z,100871.96
2018-12-08T07:42:19.896Z,100871.56
2018-12-08T07:43:20.584Z,100871.76
2018-12-08T07:44:21.000Z,100871.48
2018-12-08T07:45:21.308Z,100870.92
2018-12-08T07:46:20.702Z,100869.88
2018-12-08T07:47:22.135Z,100869.73
2018-12-08T07:48:22.610Z,100869.93
2018-12-08T07:49:23.007Z,100870.63
2018-12-08T07:50:23.300Z,100870.16
2018-12-08T07:51:23.752Z,100870.26
2018-12-08T07:52:24.191Z,100870.38
2018-12-08T07:53:24.531Z,100870.20
2018-12-08T07:54:24.877Z,100869.97
2018-12-08T07:55:25.387Z,100869.80
2018-12-08T07:56:25.649Z,100869.91
2018-12-08T07:57:26.116Z,100869.86
2018-12-08T07:58:26.403Z,100869.30
2018-12-08T07:59:26.791Z,100868.73
2018-12-08T08:00:27.427Z,100867.81
2018-12-08T08:01:27.654Z,100866.74
2018-12-08T08:02:27.837Z,100864.92
2018-12-08T08:03:27.930Z,100863.61
2018-12-08T08:04:28.229Z,100862.38
2018-12-08T08:05:28.503Z,100860.81
2018-12-08T08:06:28.886Z,100860.05
2018-12-08T08:07:29.162Z,100858.46
2018-12-08T08:08:29.427Z,100856.95
2018-12-08T08:09:29.597Z,100855.22
2018-12-08T08:10:29.947Z,100853.71
2018-12-08T08:11:30.191Z,100851.87
2018-12-08T08:12:30.544Z,100849.41
2018-12-08T08:13:30.746Z,100847.31
2018-12-08T08:13:39.200Z,100813.09
2018-12-08T08:14:40.386Z,100812.84
2018-12-08T08:15:40.601Z,100812.25
2018-12-08T08:16:41.039Z,100810.23
2018-12-08T08:17:41.353Z,100808.28
2018-12-08T08:18:42.119Z,100807.61
2018-12-08T08:19:42.574Z,100806.69
2018-12-08T08:20:42.923Z,100805.48
2018-12-08T08:21:42.282Z,100803.64
2018-12-08T08:22:43.531Z,100803.37
2018-12-08T08:23:43.963Z,100804.80
2018-12-08T08:24:44.197Z,100805.85
2018-12-08T08:25:44.505Z,100806.91
2018-12-08T08:26:44.712Z,100805.83
2018-12-08T08:27:44.911Z,100806.92
2018-12-08T08:28:45.027Z,100807.17
2018-12-08T08:29:45.541Z,100808.06
2018-12-08T08:30:46.074Z,100809.23
2018-12-08T08:31:47.047Z,100809.63
2018-12-08T08:32:48.002Z,100810.53
2018-12-08T08:33:48.837Z,100811.42
2018-12-08T08:34:49.096Z,100811.67
2018-12-08T08:35:49.388Z,100812.16
2018-12-08T08:36:49.819Z,100812.21
2018-12-08T08:37:50.082Z,100812.86
2018-12-08T08:38:50.332Z,100812.91
2018-12-08T08:39:50.693Z,100813.38
2018-12-08T08:40:51.061Z,100813.30
2018-12-08T08:41:51.639Z,100812.61
2018-12-08T08:42:51.938Z,100813.50
2018-12-08T08:43:52.213Z,100813.05
2018-12-08T08:44:52.568Z,100813.64
2018-12-08T08:45:52.822Z,100814.12
2018-12-08T08:46:53.171Z,100814.84
2018-12-08T08:47:53.355Z,100815.02
2018-12-08T08:48:53.560Z,100815.66
2018-12-08T08:49:53.912Z,100817.17
2018-12-08T08:50:54.436Z,100819.16
2018-12-08T08:51:54.735Z,100820.66
2018-12-08T08:52:55.069Z,100822.14
2018-12-08T08:53:55.383Z,100822.88
2018-12-08T08:54:55.799Z,100823.13
2018-12-08T08:55:56.254Z,100823.37
2018-12-08T08:56:56.527Z,100824.77
2018-12-08T08:57:56.822Z,100824.86
2018-12-08T08:58:57.109Z,100825.61
2018-12-08T08:59:05.329Z,100843.18
2018-12-08T09:00:06.595Z,100842.12
2018-12-08T09:01:07.011Z,100841.67
2018-12-08T09:02:07.292Z,100840.83
2018-12-08T09:03:07.817Z,100839.99
2018-12-08T09:04:08.462Z,100839.48
2018-12-08T09:05:08.974Z,100839.32
2018-12-08T09:06:09.335Z,100838.56
2018-12-08T09:07:09.609Z,100837.89
2018-12-08T09:08:09.852Z,100837.89
2018-12-08T09:09:10.561Z,100837.23
2018-12-08T09:10:11.056Z,100836.47
2018-12-08T09:11:11.573Z,100835.91
2018-12-08T09:12:11.848Z,100834.82
2018-12-08T09:13:12.248Z,100834.66
2018-12-08T09:14:13.384Z,100834.15
2018-12-08T09:15:11.884Z,100833.22
2018-12-08T09:16:13.208Z,100833.64
2018-12-08T09:17:13.520Z,100832.89
2018-12-08T09:18:13.736Z,100831.88
2018-12-08T09:19:13.995Z,100831.46
2018-12-08T09:20:14.413Z,100831.05
2018-12-08T09:21:14.615Z,100830.20
2018-12-08T09:22:14.768Z,100830.13
2018-12-08T09:23:14.981Z,100829.59
2018-12-08T09:24:15.250Z,100828.34
2018-12-08T09:25:15.668Z,100827.22
2018-12-08T09:26:15.985Z,100827.36
2018-12-08T09:27:15.130Z,100826.48
2018-12-08T09:28:16.378Z,100825.34
2018-12-08T09:29:15.493Z,100825.23
2018-12-08T09:30:16.745Z,100824.63
2018-12-08T09:31:19.858Z,100823.55
2018-12-08T09:32:16.273Z,100821.77
2018-12-08T09:33:17.555Z,100820.45
2018-12-08T09:34:17.926Z,100819.67
2018-12-08T09:35:18.259Z,100819.39
2018-12-08T09:36:18.525Z,100818.41
2018-12-08T09:37:18.729Z,100817.97
2018-12-08T09:38:19.071Z,100817.41
2018-12-08T09:39:19.403Z,100817.38
2018-12-08T09:40:19.656Z,100816.65
2018-12-08T09:41:19.939Z,100815.28
2018-12-08T09:42:20.394Z,100816.06
2018-12-08T09:43:20.669Z,100815.84
2018-12-08T09:44:20.882Z,100816.40
2018-12-08T09:45:21.319Z,100818.19
2018-12-08T09:46:21.482Z,100818.33
2018-12-08T09:46:29.735Z,100817.95
2018-12-08T09:47:30.928Z,100818.30
2018-12-08T09:48:31.258Z,100818.46
2018-12-08T09:49:31.724Z,100819.13
2018-12-08T09:50:31.971Z,100819.41
2018-12-08T09:51:32.313Z,100819.50
2018-12-08T09:52:32.650Z,100819.41
2018-12-08T09:53:32.914Z,100818.52
2018-12-08T09:54:33.222Z,100818.22
2018-12-08T09:55:33.591Z,100818.12
2018-12-08T09:56:33.825Z,100818.38
2018-12-08T09:57:34.189Z,100818.12
2018-12-08T09:58:34.396Z,100817.28
2018-12-08T09:59:34.690Z,100818.38
2018-12-08T10:00:34.194Z,100817.79
2018-12-08T10:01:35.415Z,100817.84
2018-12-08T10:02:35.630Z,100817.17
2018-12-08T10:03:35.781Z,100818.19
2018-12-08T10:04:36.083Z,100818.99
2018-12-08T10:05:36.336Z,100818.91
2018-12-08T10:06:36.512Z,100819.38
2018-12-08T10:07:36.746Z,100820.05
2018-12-08T10:08:36.953Z,100820.44
2018-12-08T10:09:37.394Z,100820.62
2018-12-08T10:10:37.747Z,100820.53
2018-12-08T10:11:38.557Z,100821.77
2018-12-08T10:12:38.920Z,100821.34
2018-12-08T10:13:39.322Z,100821.23
2018-12-08T10:14:39.664Z,100821.56
2018-12-08T10:15:39.891Z,100821.70
2018-12-08T10:16:40.102Z,100821.45
2018-12-08T10:17:40.355Z,100821.45
2018-12-08T10:18:40.712Z,100820.44
2018-12-08T10:19:40.946Z,100819.60
2018-12-08T10:20:41.144Z,100817.75
2018-12-08T10:21:41.311Z,100817.09
2018-12-08T10:22:41.518Z,100816.02
2018-12-08T10:23:41.751Z,100814.69
2018-12-08T10:24:42.169Z,100813.31
2018-12-08T10:25:41.557Z,100812.30
2018-12-08T10:26:42.920Z,100811.52
2018-12-08T10:27:43.321Z,100810.14
2018-12-08T10:28:43.661Z,100808.85
2018-12-08T10:29:43.924Z,100807.23
2018-12-08T10:30:44.257Z,100805.60
2018-12-08T10:31:44.504Z,100804.21
2018-12-08T10:32:44.905Z,100802.84
2018-12-08T10:32:59.061Z,100772.87
2018-12-08T10:33:59.339Z,100773.33
2018-12-08T10:35:00.688Z,100773.84
2018-12-08T10:36:00.927Z,100774.89
2018-12-08T10:37:01.195Z,100774.89
2018-12-08T10:38:01.479Z,100774.73
2018-12-08T10:39:01.737Z,100775.15
2018-12-08T10:40:02.002Z,100775.40
2018-12-08T10:41:02.316Z,100774.53
2018-12-08T10:42:02.648Z,100774.28
2018-12-08T10:43:02.945Z,100774.42
2018-12-08T10:44:03.195Z,100773.60
2018-12-08T10:45:03.416Z,100773.45
2018-12-08T10:46:03.688Z,100771.97
2018-12-08T10:47:03.873Z,100771.58
2018-12-08T10:48:04.132Z,100771.52
2018-12-08T10:49:04.354Z,100770.67
2018-12-08T10:50:04.613Z,100769.81
2018-12-08T10:51:04.399Z,100770.14
2018-12-08T10:52:05.676Z,100770.39
2018-12-08T10:53:06.157Z,100770.38
2018-12-08T10:54:06.503Z,100770.66
2018-12-08T10:55:06.895Z,100770.25
2018-12-08T10:56:07.176Z,100771.03
2018-12-08T10:57:07.409Z,100770.80
2018-12-08T10:58:07.715Z,100770.94
2018-12-08T10:59:08.017Z,100771.21
2018-12-08T11:00:08.354Z,100771.69
2018-12-08T11:01:08.743Z,100770.23
2018-12-08T11:02:08.958Z,100770.45
2018-12-08T11:03:09.336Z,100771.03
2018-12-08T11:04:09.653Z,100771.17
2018-12-08T11:05:09.899Z,100770.84
2018-12-08T11:06:10.379Z,100771.89
2018-12-08T11:07:10.732Z,100772.70
2018-12-08T11:08:11.121Z,100772.92
2018-12-08T11:09:11.470Z,100772.59
2018-12-08T11:10:11.823Z,100772.30
2018-12-08T11:11:12.162Z,100771.80
2018-12-08T11:12:12.433Z,100772.44
2018-12-08T11:13:12.768Z,100773.03
2018-12-08T11:14:13.051Z,100773.16
2018-12-08T11:15:13.454Z,100773.72
2018-12-08T11:16:13.883Z,100774.36
2018-12-08T11:17:14.405Z,100775.17
2018-12-08T11:18:14.789Z,100775.09